createdAt,value
2019-06-20T00:00:20.609Z,0
2019-06-20T00:01:22.018Z,0
2019-06-20T00:02:23.409Z,0
2019-06-20T00:03:24.815Z,0
2019-06-20T00:04:26.223Z,0
2019-06-20T00:05:27.615Z,0
2019-06-20T00:06:29.019Z,0
2019-06-20T00:07:30.421Z,0
2019-06-20T00:08:31.824Z,0
2019-06-20T00:09:33.223Z,0
2019-06-20T00:10:34.635Z,0
2019-06-20T00:11:36.038Z,0
2019-06-20T00:12:37.441Z,0
2019-06-20T00:13:38.845Z,0
2019-06-20T00:14:40.244Z,0
2019-06-20T00:15:41.703Z,0
2019-06-20T00:16:43.002Z,0
2019-06-20T00:17:44.406Z,0
2019-06-20T00:18:45.822Z,0
2019-06-20T00:19:47.225Z,0
2019-06-20T00:20:48.633Z,0
2019-06-20T00:21:50.058Z,0
2019-06-20T00:22:51.463Z,0
2019-06-20T00:23:52.853Z,0
2019-06-20T00:24:54.254Z,0
2019-06-20T00:25:55.653Z,0
2019-06-20T00:26:57.055Z,0
2019-06-20T00:27:58.467Z,0
2019-06-20T00:28:59.870Z,0
2019-06-20T00:30:01.276Z,0
2019-06-20T00:31:02.693Z,0
2019-06-20T00:32:04.100Z,0
2019-06-20T00:33:05.526Z,0
2019-06-20T00:34:06.930Z,0
2019-06-20T00:35:08.322Z,0
2019-06-20T00:36:09.726Z,0
2019-06-20T00:37:11.125Z,0
2019-06-20T00:38:12.547Z,0
2019-06-20T00:39:13.948Z,0
2019-06-20T00:40:15.347Z,0
2019-06-20T00:41:16.748Z,0
2019-06-20T00:42:18.148Z,0
2019-06-20T00:43:19.549Z,0
2019-06-20T00:44:20.985Z,0
2019-06-20T00:45:22.361Z,0
2019-06-20T00:46:23.753Z,0
2019-06-20T00:47:25.159Z,0
2019-06-20T00:48:26.569Z,0
2019-06-20T00:49:28.042Z,0
2019-06-20T00:50:29.401Z,0
2019-06-20T00:51:30.809Z,0
2019-06-20T00:52:32.207Z,0
2019-06-20T00:53:33.630Z,0
2019-06-20T00:54:35.021Z,0
2019-06-20T00:55:36.419Z,0
2019-06-20T00:56:37.839Z,0
2019-06-20T00:57:39.235Z,0
2019-06-20T00:58:40.639Z,0
2019-06-20T00:59:42.034Z,0
2019-06-20T01:00:43.400Z,0
2019-06-20T01:01:44.806Z,0
2019-06-20T01:02:46.214Z,0
2019-06-20T01:03:47.617Z,0
2019-06-20T01:04:49.017Z,0
2019-06-20T01:05:50.429Z,0
2019-06-20T01:06:51.833Z,0
2019-06-20T01:07:53.235Z,0
2019-06-20T01:08:54.633Z,0
2019-06-20T01:09:56.041Z,0
2019-06-20T01:10:57.433Z,0
2019-06-20T01:11:58.834Z,0
2019-06-20T01:13:00.233Z,0
2019-06-20T01:14:01.633Z,0
2019-06-20T01:15:03.034Z,0
2019-06-20T01:16:04.428Z,0
2019-06-20T01:17:05.837Z,0
2019-06-20T01:18:07.242Z,0
2019-06-20T01:19:08.655Z,0
2019-06-20T01:20:10.056Z,0
2019-06-20T01:21:11.466Z,0
2019-06-20T01:22:12.864Z,0
2019-06-20T01:23:14.266Z,0
2019-06-20T01:24:15.660Z,0
2019-06-20T01:25:17.062Z,0
2019-06-20T01:26:18.459Z,0
2019-06-20T01:27:19.859Z,0
2019-06-20T01:28:21.267Z,0
2019-06-20T01:29:22.670Z,0
2019-06-20T01:30:24.061Z,0
2019-06-20T01:31:25.469Z,0
2019-06-20T01:32:26.864Z,0
2019-06-20T01:33:28.262Z,0
2019-06-20T01:34:29.684Z,0
2019-06-20T01:35:31.069Z,0
2019-06-20T01:36:32.463Z,0
2019-06-20T01:37:33.873Z,0
2019-06-20T01:38:35.265Z,0
2019-06-20T01:39:36.683Z,0
2019-06-20T01:40:38.075Z,0
2019-06-20T01:41:39.503Z,0
2019-06-20T01:42:40.884Z,0
2019-06-20T01:43:50.652Z,0
2019-06-20T01:44:43.644Z,0
2019-06-20T01:45:45.041Z,0
2019-06-20T01:46:46.443Z,0
2019-06-20T01:47:47.850Z,0
2019-06-20T01:48:49.240Z,0
2019-06-20T01:49:50.647Z,0
2019-06-20T01:50:52.033Z,0
2019-06-20T01:51:53.452Z,0
2019-06-20T01:52:54.850Z,0
2019-06-20T01:53:56.262Z,0
2019-06-20T01:54:57.659Z,0
2019-06-20T01:55:59.065Z,0
2019-06-20T01:57:00.474Z,0
2019-06-20T01:58:01.887Z,0
2019-06-20T01:59:03.290Z,0
2019-06-20T02:00:04.691Z,0
2019-06-20T02:01:06.089Z,0
2019-06-20T02:02:07.480Z,0
2019-06-20T02:03:08.878Z,0
2019-06-20T02:04:10.276Z,0
2019-06-20T02:05:11.693Z,4
2019-06-20T02:06:13.101Z,4
2019-06-20T02:07:14.513Z,4
2019-06-20T02:08:15.914Z,4
2019-06-20T02:09:17.311Z,0
2019-06-20T02:10:18.752Z,4
2019-06-20T02:11:20.141Z,4
2019-06-20T02:12:21.539Z,8
2019-06-20T02:13:22.939Z,4
2019-06-20T02:14:24.341Z,8
2019-06-20T02:15:25.749Z,4
2019-06-20T02:16:27.160Z,8
2019-06-20T02:17:28.570Z,8
2019-06-20T02:18:29.970Z,8
2019-06-20T02:19:31.385Z,12
2019-06-20T02:20:32.789Z,8
2019-06-20T02:21:34.191Z,12
2019-06-20T02:22:35.608Z,12
2019-06-20T02:23:37.004Z,12
2019-06-20T02:24:38.412Z,12
2019-06-20T02:25:39.812Z,16
2019-06-20T02:26:41.211Z,16
2019-06-20T02:27:42.608Z,20
2019-06-20T02:28:44.002Z,20
2019-06-20T02:29:45.412Z,20
2019-06-20T02:30:46.812Z,24
2019-06-20T02:31:48.214Z,20
2019-06-20T02:32:49.622Z,24
2019-06-20T02:33:51.021Z,24
2019-06-20T02:34:52.413Z,28
2019-06-20T02:35:53.830Z,28
2019-06-20T02:36:55.221Z,24
2019-06-20T02:37:56.646Z,24
2019-06-20T02:38:58.030Z,28
2019-06-20T02:39:59.431Z,24
2019-06-20T02:41:00.825Z,28
2019-06-20T02:42:02.226Z,28
2019-06-20T02:43:03.617Z,28
2019-06-20T02:44:05.051Z,28
2019-06-20T02:45:06.454Z,28
2019-06-20T02:46:07.848Z,32
2019-06-20T02:47:09.358Z,36
2019-06-20T02:48:10.618Z,40
2019-06-20T02:49:12.029Z,48
2019-06-20T02:50:13.440Z,48
2019-06-20T02:51:14.846Z,52
2019-06-20T02:52:16.254Z,56
2019-06-20T02:53:17.663Z,64
2019-06-20T02:54:20.001Z,64
2019-06-20T02:55:21.407Z,64
2019-06-20T02:56:22.801Z,64
2019-06-20T02:57:24.204Z,68
2019-06-20T02:58:25.608Z,72
2019-06-20T02:59:27.020Z,72
2019-06-20T03:00:28.420Z,68
2019-06-20T03:01:29.823Z,64
2019-06-20T03:02:31.228Z,60
2019-06-20T03:03:32.640Z,76
2019-06-20T03:04:34.140Z,88
2019-06-20T03:05:35.413Z,96
2019-06-20T03:06:36.834Z,96
2019-06-20T03:07:38.230Z,100
2019-06-20T03:08:39.646Z,100
2019-06-20T03:09:41.060Z,104
2019-06-20T03:10:42.469Z,108
2019-06-20T03:11:43.873Z,112
2019-06-20T03:12:45.277Z,124
2019-06-20T03:13:46.708Z,132
2019-06-20T03:14:48.107Z,136
2019-06-20T03:15:50.101Z,152
2019-06-20T03:16:50.898Z,160
2019-06-20T03:17:52.289Z,164
2019-06-20T03:18:53.709Z,132
2019-06-20T03:19:55.110Z,120
2019-06-20T03:20:56.509Z,116
2019-06-20T03:21:57.930Z,120
2019-06-20T03:22:59.324Z,132
2019-06-20T03:24:00.732Z,132
2019-06-20T03:25:02.155Z,140
2019-06-20T03:26:03.574Z,152
2019-06-20T03:27:04.961Z,164
2019-06-20T03:28:06.372Z,176
2019-06-20T03:29:07.772Z,192
2019-06-20T03:30:09.180Z,208
2019-06-20T03:31:10.589Z,244
2019-06-20T03:32:11.994Z,284
2019-06-20T03:33:13.416Z,312
2019-06-20T03:34:14.826Z,336
2019-06-20T03:35:16.232Z,368
2019-06-20T03:36:17.642Z,424
2019-06-20T03:37:19.051Z,492
2019-06-20T03:38:20.464Z,548
2019-06-20T03:39:21.872Z,556
2019-06-20T03:40:23.273Z,536
2019-06-20T03:41:24.684Z,508
2019-06-20T03:42:26.089Z,492
2019-06-20T03:43:27.491Z,500
2019-06-20T03:44:28.906Z,524
2019-06-20T03:45:30.310Z,572
2019-06-20T03:46:31.726Z,636
2019-06-20T03:47:33.129Z,672
2019-06-20T03:48:34.535Z,716
2019-06-20T03:49:35.949Z,772
2019-06-20T03:50:37.365Z,832
2019-06-20T03:51:38.761Z,888
2019-06-20T03:52:40.173Z,960
2019-06-20T03:53:41.570Z,980
2019-06-20T03:54:42.982Z,984
2019-06-20T03:55:44.388Z,1044
2019-06-20T03:56:45.812Z,1100
2019-06-20T03:57:47.950Z,1168
2019-06-20T03:58:49.346Z,1208
2019-06-20T03:59:50.777Z,1264
2019-06-20T04:00:52.175Z,1316
2019-06-20T04:01:53.593Z,1392
2019-06-20T04:02:55.003Z,1532
2019-06-20T04:03:56.406Z,1616
2019-06-20T04:04:57.816Z,1576
2019-06-20T04:05:59.216Z,1504
2019-06-20T04:07:00.631Z,1460
2019-06-20T04:08:02.026Z,1432
2019-06-20T04:09:03.433Z,1376
2019-06-20T04:10:04.834Z,1308
2019-06-20T04:11:06.250Z,1320
2019-06-20T04:12:07.667Z,1616
2019-06-20T04:13:09.068Z,1404
2019-06-20T04:14:10.480Z,1448
2019-06-20T04:15:18.965Z,1548
2019-06-20T04:16:13.249Z,1292
2019-06-20T04:17:14.659Z,1456
2019-06-20T04:18:16.069Z,2512
2019-06-20T04:19:17.479Z,1276
2019-06-20T04:20:18.875Z,1184
2019-06-20T04:21:20.273Z,1216
2019-06-20T04:22:21.687Z,1244
2019-06-20T04:23:23.093Z,1272
2019-06-20T04:24:27.107Z,1316
2019-06-20T04:25:25.843Z,1352
2019-06-20T04:26:27.254Z,1392
2019-06-20T04:27:28.665Z,3632
2019-06-20T04:28:30.062Z,3504
2019-06-20T04:29:31.488Z,1744
2019-06-20T04:30:32.893Z,2252
2019-06-20T04:31:34.299Z,6040
2019-06-20T04:32:35.769Z,7916
2019-06-20T04:33:37.098Z,7308
2019-06-20T04:34:38.505Z,2064
2019-06-20T04:35:39.902Z,2132
2019-06-20T04:36:41.358Z,2732
2019-06-20T04:37:42.685Z,3552
2019-06-20T04:38:44.106Z,2876
2019-06-20T04:39:45.477Z,9336
2019-06-20T04:40:46.893Z,9276
2019-06-20T04:41:48.321Z,4244
2019-06-20T04:42:49.746Z,9932
2019-06-20T04:43:51.163Z,9364
2019-06-20T04:44:52.557Z,9408
2019-06-20T04:45:54.914Z,11288
2019-06-20T04:46:56.343Z,11720
2019-06-20T04:47:57.770Z,11324
2019-06-20T04:48:59.178Z,11112
2019-06-20T04:50:00.591Z,11464
2019-06-20T04:51:02.048Z,11216
2019-06-20T04:52:03.463Z,10340
2019-06-20T04:53:04.890Z,9344
2019-06-20T04:54:06.325Z,8620
2019-06-20T04:55:07.742Z,8600
2019-06-20T04:56:09.155Z,8164
2019-06-20T04:57:10.573Z,8180
2019-06-20T04:58:11.991Z,9868
2019-06-20T04:59:13.431Z,11272
2019-06-20T05:00:14.852Z,9152
2019-06-20T05:01:16.836Z,7020
2019-06-20T05:02:18.252Z,6732
2019-06-20T05:03:19.657Z,4220
2019-06-20T05:04:21.086Z,13888
2019-06-20T05:05:22.492Z,5872
2019-06-20T05:06:23.914Z,8992
2019-06-20T05:07:25.324Z,4432
2019-06-20T05:08:26.766Z,3724
2019-06-20T05:09:28.196Z,3800
2019-06-20T05:10:29.616Z,3244
2019-06-20T05:11:31.033Z,14016
2019-06-20T05:12:32.467Z,3144
2019-06-20T05:13:33.881Z,3544
2019-06-20T05:14:35.290Z,7480
2019-06-20T05:15:51.479Z,3944
2019-06-20T05:16:38.081Z,3996
2019-06-20T05:17:39.533Z,4272
2019-06-20T05:18:40.956Z,4160
2019-06-20T05:19:42.361Z,5840
2019-06-20T05:20:43.783Z,7776
2019-06-20T05:21:45.197Z,8532
2019-06-20T05:22:46.607Z,8480
2019-06-20T05:23:48.026Z,7920
2019-06-20T05:24:49.444Z,7372
2019-06-20T05:25:50.862Z,7248
2019-06-20T05:26:52.268Z,7244
2019-06-20T05:27:53.730Z,4820
2019-06-20T05:28:55.050Z,3392
2019-06-20T05:29:56.457Z,3740
2019-06-20T05:30:57.874Z,3400
2019-06-20T05:31:59.286Z,3376
2019-06-20T05:33:00.693Z,3120
2019-06-20T05:34:02.098Z,3064
2019-06-20T05:35:03.542Z,5076
2019-06-20T05:36:04.950Z,3580
2019-06-20T05:37:06.366Z,4248
2019-06-20T05:38:07.789Z,2996
2019-06-20T05:39:09.183Z,3016
2019-06-20T05:40:10.603Z,3192
2019-06-20T05:41:12.013Z,3340
2019-06-20T05:42:13.426Z,3656
2019-06-20T05:43:14.827Z,8712
2019-06-20T05:44:16.247Z,7884
2019-06-20T05:45:17.677Z,7688
2019-06-20T05:46:19.135Z,6384
2019-06-20T05:47:20.527Z,4676
2019-06-20T05:48:21.909Z,4796
2019-06-20T05:49:23.364Z,8396
2019-06-20T05:50:24.783Z,6308
2019-06-20T05:51:26.197Z,8484
2019-06-20T05:52:27.598Z,8500
2019-06-20T05:53:29.010Z,8216
2019-06-20T05:54:30.409Z,8084
2019-06-20T05:55:31.830Z,6944
2019-06-20T05:56:33.244Z,8400
2019-06-20T05:57:34.676Z,9000
2019-06-20T05:58:36.080Z,8436
2019-06-20T05:59:37.544Z,8564
2019-06-20T06:00:38.974Z,7724
2019-06-20T06:01:40.388Z,7312
2019-06-20T06:02:41.816Z,5912
2019-06-20T06:03:43.258Z,6888
2019-06-20T06:04:44.653Z,7292
2019-06-20T06:05:46.079Z,6996
2019-06-20T06:06:47.580Z,6036
2019-06-20T06:07:48.883Z,5908
2019-06-20T06:08:50.351Z,6152
2019-06-20T06:09:51.775Z,5724
2019-06-20T06:10:53.212Z,4772
2019-06-20T06:11:54.644Z,5268
2019-06-20T06:12:56.027Z,5076
2019-06-20T06:13:57.425Z,6592
2019-06-20T06:15:00.846Z,7292
2019-06-20T06:16:00.312Z,4524
2019-06-20T06:17:01.630Z,4480
2019-06-20T06:18:03.086Z,4296
2019-06-20T06:19:04.490Z,4056
2019-06-20T06:20:05.909Z,3892
2019-06-20T06:21:07.337Z,3380
2019-06-20T06:22:08.735Z,2944
2019-06-20T06:23:10.152Z,2808
2019-06-20T06:24:11.555Z,2824
2019-06-20T06:25:12.960Z,2908
2019-06-20T06:26:14.387Z,3432
2019-06-20T06:27:15.790Z,4208
2019-06-20T06:28:17.209Z,5300
2019-06-20T06:29:18.618Z,5300
2019-06-20T06:30:20.051Z,4564
2019-06-20T06:31:21.456Z,5336
2019-06-20T06:32:36.296Z,6676
2019-06-20T06:33:24.235Z,5868
2019-06-20T06:34:25.656Z,6648
2019-06-20T06:35:27.039Z,5700
2019-06-20T06:36:28.475Z,9056
2019-06-20T06:37:29.881Z,9536
2019-06-20T06:38:31.313Z,10604
2019-06-20T06:39:32.736Z,12176
2019-06-20T06:40:34.149Z,12192
2019-06-20T06:41:35.549Z,12548
2019-06-20T06:42:36.955Z,12084
2019-06-20T06:43:41.865Z,12688
2019-06-20T06:44:39.757Z,12612
2019-06-20T06:45:41.154Z,12680
2019-06-20T06:46:48.435Z,8656
2019-06-20T06:47:43.931Z,7804
2019-06-20T06:48:45.377Z,7976
2019-06-20T06:49:46.749Z,6408
2019-06-20T06:50:48.164Z,6768
2019-06-20T06:51:49.566Z,9236
2019-06-20T06:52:50.960Z,7960
2019-06-20T06:53:52.368Z,6344
2019-06-20T06:54:53.777Z,6848
2019-06-20T06:55:55.207Z,6308
2019-06-20T06:56:56.623Z,6000
2019-06-20T06:57:58.121Z,7104
2019-06-20T06:58:59.418Z,6524
2019-06-20T07:00:00.833Z,5680
2019-06-20T07:01:02.343Z,5428
2019-06-20T07:02:03.649Z,5804
2019-06-20T07:03:05.094Z,5064
2019-06-20T07:04:06.501Z,4748
2019-06-20T07:05:07.917Z,4248
2019-06-20T07:06:09.396Z,4520
2019-06-20T07:07:10.714Z,4904
2019-06-20T07:08:12.133Z,4300
2019-06-20T07:09:13.545Z,3688
2019-06-20T07:10:14.950Z,2972
2019-06-20T07:11:16.376Z,2716
2019-06-20T07:12:17.774Z,2648
2019-06-20T07:13:19.185Z,2332
2019-06-20T07:14:20.643Z,2084
2019-06-20T07:15:22.055Z,1864
2019-06-20T07:16:23.464Z,1620
2019-06-20T07:17:24.869Z,1392
2019-06-20T07:18:26.291Z,1304
2019-06-20T07:19:27.681Z,1400
2019-06-20T07:20:29.089Z,1604
2019-06-20T07:21:30.500Z,1828
2019-06-20T07:22:31.942Z,2196
2019-06-20T07:23:33.343Z,2668
2019-06-20T07:24:34.748Z,3324
2019-06-20T07:25:36.158Z,4156
2019-06-20T07:26:37.569Z,4668
2019-06-20T07:27:38.984Z,5180
2019-06-20T07:28:40.394Z,6092
2019-06-20T07:29:41.799Z,5188
2019-06-20T07:30:43.208Z,4952
2019-06-20T07:31:44.620Z,4848
2019-06-20T07:32:46.026Z,5860
2019-06-20T07:33:47.430Z,7284
2019-06-20T07:34:48.839Z,6332
2019-06-20T07:35:50.242Z,6004
2019-06-20T07:36:51.669Z,5736
2019-06-20T07:37:53.067Z,5776
2019-06-20T07:38:54.480Z,5800
2019-06-20T07:39:55.891Z,5968
2019-06-20T07:40:57.291Z,5828
2019-06-20T07:41:58.699Z,5264
2019-06-20T07:43:00.123Z,5112
2019-06-20T07:44:01.558Z,5880
2019-06-20T07:45:03.017Z,5872
2019-06-20T07:46:04.434Z,7764
2019-06-20T07:47:17.141Z,6716
2019-06-20T07:48:07.262Z,6760
2019-06-20T07:49:08.707Z,8576
2019-06-20T07:50:10.164Z,5816
2019-06-20T07:51:11.590Z,4900
2019-06-20T07:52:13.024Z,4556
2019-06-20T07:53:14.464Z,4156
2019-06-20T07:54:15.881Z,4236
2019-06-20T07:55:17.300Z,4396
2019-06-20T07:56:18.729Z,3648
2019-06-20T07:57:20.174Z,3420
2019-06-20T07:58:21.621Z,3388
2019-06-20T07:59:23.071Z,3720
2019-06-20T08:00:24.501Z,3328
2019-06-20T08:01:25.939Z,2800
2019-06-20T08:02:27.387Z,2700
2019-06-20T08:03:28.827Z,2916
2019-06-20T08:04:30.281Z,2896
2019-06-20T08:05:31.725Z,3268
2019-06-20T08:06:33.165Z,3252
2019-06-20T08:07:34.605Z,3168
2019-06-20T08:08:36.050Z,2720
2019-06-20T08:09:44.731Z,2568
2019-06-20T08:10:38.851Z,2744
2019-06-20T08:11:40.274Z,2684
2019-06-20T08:12:41.733Z,2476
2019-06-20T08:13:43.139Z,2396
2019-06-20T08:14:44.543Z,2496
2019-06-20T08:15:45.945Z,2860
2019-06-20T08:16:47.382Z,2800
2019-06-20T08:17:48.811Z,3064
2019-06-20T08:18:50.227Z,3424
2019-06-20T08:19:51.636Z,3644
2019-06-20T08:20:53.060Z,3732
2019-06-20T08:21:54.487Z,3944
2019-06-20T08:22:55.880Z,3932
2019-06-20T08:23:57.305Z,4088
2019-06-20T08:24:59.040Z,3844
2019-06-20T08:26:00.537Z,3452
2019-06-20T08:27:03.082Z,3436
2019-06-20T08:28:02.844Z,3284
2019-06-20T08:29:15.829Z,3140
2019-06-20T08:30:05.650Z,2864
2019-06-20T08:31:07.058Z,2720
2019-06-20T08:32:08.481Z,2444
2019-06-20T08:33:11.964Z,2244
2019-06-20T08:34:11.269Z,2088
2019-06-20T08:35:12.682Z,2040
2019-06-20T08:36:14.110Z,2052
2019-06-20T08:37:15.519Z,2052
2019-06-20T08:38:17.025Z,2024
2019-06-20T08:39:18.438Z,2148
2019-06-20T08:40:19.927Z,2276
2019-06-20T08:41:21.372Z,2328
2019-06-20T08:42:22.802Z,2300
2019-06-20T08:43:24.204Z,2252
2019-06-20T08:44:25.620Z,2384
2019-06-20T08:45:27.039Z,2648
2019-06-20T08:46:28.558Z,2816
2019-06-20T08:47:30.096Z,2852
2019-06-20T08:48:31.496Z,2956
2019-06-20T08:49:32.933Z,3068
2019-06-20T08:50:34.343Z,3300
2019-06-20T08:51:35.777Z,3456
2019-06-20T08:52:37.204Z,3316
2019-06-20T08:53:38.614Z,3168
2019-06-20T08:54:40.027Z,2980
2019-06-20T08:55:41.444Z,2852
2019-06-20T08:56:42.881Z,2880
2019-06-20T08:57:44.259Z,2956
2019-06-20T08:58:45.709Z,3184
2019-06-20T08:59:47.113Z,3332
2019-06-20T09:00:48.518Z,3404
2019-06-20T09:01:49.934Z,3088
2019-06-20T09:02:51.328Z,2888
2019-06-20T09:03:53.974Z,2680
2019-06-20T09:04:55.201Z,2620
2019-06-20T09:05:57.098Z,2580
2019-06-20T09:06:57.564Z,2520
2019-06-20T09:07:59.007Z,2416
2019-06-20T09:09:00.095Z,2392
2019-06-20T09:10:01.852Z,2416
2019-06-20T09:11:02.321Z,2552
2019-06-20T09:12:04.975Z,2860
2019-06-20T09:13:05.120Z,3312
2019-06-20T09:14:06.526Z,3872
2019-06-20T09:15:07.948Z,4516
2019-06-20T09:16:16.305Z,5128
2019-06-20T09:17:10.716Z,5808
2019-06-20T09:18:12.132Z,6200
2019-06-20T09:19:13.517Z,6644
2019-06-20T09:20:14.941Z,6400
2019-06-20T09:21:16.342Z,5944
2019-06-20T09:22:17.744Z,6488
2019-06-20T09:23:19.155Z,7240
2019-06-20T09:24:20.574Z,7568
2019-06-20T09:25:22.015Z,7216
2019-06-20T09:26:23.430Z,9320
2019-06-20T09:27:24.847Z,9736
2019-06-20T09:28:26.276Z,9740
2019-06-20T09:29:40.821Z,9984
2019-06-20T09:30:29.060Z,9904
2019-06-20T09:31:30.472Z,9276
2019-06-20T09:32:31.889Z,7108
2019-06-20T09:33:33.293Z,6360
2019-06-20T09:34:34.694Z,5052
2019-06-20T09:35:36.098Z,4152
2019-06-20T09:36:37.508Z,3888
2019-06-20T09:37:38.924Z,3540
2019-06-20T09:38:40.326Z,3484
2019-06-20T09:39:41.730Z,3080
2019-06-20T09:40:43.136Z,2684
2019-06-20T09:41:44.540Z,2444
2019-06-20T09:42:45.936Z,2436
2019-06-20T09:43:47.350Z,2396
2019-06-20T09:44:49.854Z,2148
2019-06-20T09:45:51.030Z,2180
2019-06-20T09:46:52.330Z,2172
2019-06-20T09:47:53.770Z,2236
2019-06-20T09:48:55.534Z,2244
2019-06-20T09:49:57.191Z,2216
2019-06-20T09:50:57.038Z,2368
2019-06-20T09:51:58.711Z,2408
2019-06-20T09:52:59.706Z,2416
2019-06-20T09:54:01.115Z,2524
2019-06-20T09:55:02.605Z,2768
2019-06-20T09:56:04.005Z,3128
2019-06-20T09:57:05.431Z,3348
2019-06-20T09:58:06.853Z,3508
2019-06-20T09:59:08.243Z,3700
2019-06-20T10:00:10.569Z,3840
2019-06-20T10:01:11.023Z,4360
2019-06-20T10:02:12.417Z,4484
2019-06-20T10:03:13.823Z,4456
2019-06-20T10:04:15.244Z,4600
2019-06-20T10:05:16.637Z,4964
2019-06-20T10:06:18.044Z,5708
2019-06-20T10:07:19.456Z,6440
2019-06-20T10:08:20.867Z,7000
2019-06-20T10:09:22.263Z,7128
2019-06-20T10:10:23.673Z,7356
2019-06-20T10:11:25.097Z,6580
2019-06-20T10:12:26.480Z,6404
2019-06-20T10:13:27.901Z,7412
2019-06-20T10:14:29.302Z,8416
2019-06-20T10:15:30.718Z,9268
2019-06-20T10:16:44.964Z,8996
2019-06-20T10:17:33.508Z,8180
2019-06-20T10:18:35.019Z,7308
2019-06-20T10:19:36.371Z,6476
2019-06-20T10:20:39.034Z,6192
2019-06-20T10:21:39.148Z,6628
2019-06-20T10:22:40.557Z,6804
2019-06-20T10:23:41.959Z,6860
2019-06-20T10:24:43.372Z,6664
2019-06-20T10:25:46.060Z,7048
2019-06-20T10:26:46.656Z,6424
2019-06-20T10:27:48.324Z,6956
2019-06-20T10:28:49.190Z,7572
2019-06-20T10:29:51.029Z,8344
2019-06-20T10:30:51.646Z,9740
2019-06-20T10:31:53.160Z,9580
2019-06-20T10:32:54.429Z,9056
2019-06-20T10:33:56.879Z,9476
2019-06-20T10:34:57.227Z,9240
2019-06-20T10:35:58.633Z,8144
2019-06-20T10:37:00.063Z,7280
2019-06-20T10:38:01.474Z,6600
2019-06-20T10:39:02.886Z,6080
2019-06-20T10:40:04.290Z,5976
2019-06-20T10:41:05.743Z,5888
2019-06-20T10:42:07.117Z,5800
2019-06-20T10:43:08.590Z,5760
2019-06-20T10:44:09.950Z,5700
2019-06-20T10:45:11.356Z,5508
2019-06-20T10:46:12.780Z,5424
2019-06-20T10:47:14.188Z,5244
2019-06-20T10:48:15.596Z,4956
2019-06-20T10:49:17.004Z,4620
2019-06-20T10:50:18.418Z,4392
2019-06-20T10:51:19.836Z,3996
2019-06-20T10:52:21.262Z,3760
2019-06-20T10:53:22.668Z,3764
2019-06-20T10:54:24.079Z,3692
2019-06-20T10:55:25.484Z,3536
2019-06-20T10:56:26.903Z,3396
2019-06-20T10:57:28.330Z,3280
2019-06-20T10:58:29.734Z,3248
2019-06-20T10:59:31.137Z,3336
2019-06-20T11:00:32.562Z,3348
2019-06-20T11:01:34.003Z,3252
2019-06-20T11:02:35.415Z,3268
2019-06-20T11:03:36.849Z,3168
2019-06-20T11:04:40.447Z,3148
2019-06-20T11:05:40.492Z,3108
2019-06-20T11:06:41.637Z,2984
2019-06-20T11:07:43.553Z,2776
2019-06-20T11:08:45.097Z,2676
2019-06-20T11:09:45.292Z,2536
2019-06-20T11:10:47.201Z,2504
2019-06-20T11:11:49.067Z,2496
2019-06-20T11:12:55.027Z,2444
2019-06-20T11:13:50.796Z,2380
2019-06-20T11:14:52.225Z,2332
2019-06-20T11:15:53.633Z,2296
2019-06-20T11:16:55.056Z,2260
2019-06-20T11:17:56.950Z,2260
2019-06-20T11:18:57.926Z,2268
2019-06-20T11:19:59.319Z,2248
2019-06-20T11:21:00.739Z,2232
2019-06-20T11:22:02.217Z,2256
2019-06-20T11:23:03.615Z,2220
2019-06-20T11:24:05.022Z,2160
2019-06-20T11:25:06.450Z,2268
2019-06-20T11:26:07.874Z,2204
2019-06-20T11:27:09.273Z,2376
2019-06-20T11:28:10.689Z,2656
2019-06-20T11:29:12.092Z,2892
2019-06-20T11:30:13.527Z,3044
2019-06-20T11:31:14.945Z,3308
2019-06-20T11:32:16.373Z,3464
2019-06-20T11:33:17.778Z,3524
2019-06-20T11:34:19.190Z,3484
2019-06-20T11:35:20.610Z,3548
2019-06-20T11:36:22.022Z,3848
2019-06-20T11:37:23.479Z,4056
2019-06-20T11:38:24.878Z,3772
2019-06-20T11:39:26.303Z,3780
2019-06-20T11:40:27.738Z,3808
2019-06-20T11:41:29.161Z,3852
2019-06-20T11:42:30.579Z,3824
2019-06-20T11:43:31.993Z,3744
2019-06-20T11:44:35.311Z,3592
2019-06-20T11:45:36.058Z,3616
2019-06-20T11:46:36.995Z,3704
2019-06-20T11:47:38.275Z,3700
2019-06-20T11:48:38.995Z,3784
2019-06-20T11:49:40.477Z,3928
2019-06-20T11:50:42.364Z,3980
2019-06-20T11:51:43.209Z,3924
2019-06-20T11:52:45.795Z,3756
2019-06-20T11:53:46.017Z,3952
2019-06-20T11:54:47.433Z,4088
2019-06-20T11:55:48.847Z,4228
2019-06-20T11:56:50.267Z,4048
2019-06-20T11:57:51.701Z,4616
2019-06-20T11:58:53.119Z,8768
2019-06-20T11:59:54.564Z,14408
2019-06-20T12:01:03.684Z,10368
2019-06-20T12:01:57.315Z,5104
2019-06-20T12:02:58.722Z,5120
2019-06-20T12:04:00.143Z,4656
2019-06-20T12:05:01.559Z,5100
2019-06-20T12:06:02.973Z,5416
2019-06-20T12:07:04.393Z,5212
2019-06-20T12:08:05.812Z,5092
2019-06-20T12:09:07.253Z,6064
2019-06-20T12:10:09.457Z,11176
2019-06-20T12:11:10.865Z,9024
2019-06-20T12:12:12.285Z,7120
2019-06-20T12:13:13.695Z,6240
2019-06-20T12:14:15.130Z,6020
2019-06-20T12:15:16.576Z,6236
2019-06-20T12:16:17.981Z,7808
2019-06-20T12:17:19.389Z,7868
2019-06-20T12:18:20.805Z,8412
2019-06-20T12:19:22.218Z,10768
2019-06-20T12:20:23.634Z,18528
2019-06-20T12:21:25.059Z,28064
2019-06-20T12:22:26.477Z,16480
2019-06-20T12:23:27.889Z,8736
2019-06-20T12:24:29.314Z,37184
2019-06-20T12:25:30.752Z,30304
2019-06-20T12:26:32.162Z,20320
2019-06-20T12:27:33.608Z,18944
2019-06-20T12:28:35.016Z,11872
2019-06-20T12:29:36.432Z,11660
2019-06-20T12:30:38.382Z,17120
2019-06-20T12:31:39.799Z,21440
2019-06-20T12:32:41.079Z,32192
2019-06-20T12:33:42.509Z,18976
2019-06-20T12:34:44.493Z,8972
2019-06-20T12:35:44.800Z,8840
2019-06-20T12:36:46.641Z,11332
2019-06-20T12:37:47.768Z,7328
2019-06-20T12:38:48.986Z,5864
2019-06-20T12:39:50.414Z,5704
2019-06-20T12:40:51.810Z,5836
2019-06-20T12:41:53.227Z,9756
2019-06-20T12:42:54.629Z,9932
2019-06-20T12:43:56.034Z,8644
2019-06-20T12:44:57.440Z,8152
2019-06-20T12:45:58.882Z,8108
2019-06-20T12:47:00.299Z,8996
2019-06-20T12:48:01.699Z,8088
2019-06-20T12:49:03.140Z,7616
2019-06-20T12:50:04.585Z,7444
2019-06-20T12:51:05.986Z,7320
2019-06-20T12:52:07.398Z,7332
2019-06-20T12:53:08.814Z,6708
2019-06-20T12:54:10.264Z,6540
2019-06-20T12:55:11.681Z,6036
2019-06-20T12:56:13.108Z,5468
2019-06-20T12:57:14.511Z,4708
2019-06-20T12:58:15.958Z,6084
2019-06-20T12:59:17.363Z,7188
2019-06-20T13:00:18.980Z,6364
2019-06-20T13:01:34.428Z,5020
2019-06-20T13:02:21.778Z,4580
2019-06-20T13:03:23.195Z,3940
2019-06-20T13:04:24.621Z,4392
2019-06-20T13:05:26.043Z,4860
2019-06-20T13:06:27.456Z,4804
2019-06-20T13:07:28.873Z,3856
2019-06-20T13:08:30.291Z,4200
2019-06-20T13:09:31.687Z,3680
2019-06-20T13:10:33.098Z,3996
2019-06-20T13:11:34.529Z,5820
2019-06-20T13:12:35.935Z,5272
2019-06-20T13:13:38.818Z,5632
2019-06-20T13:14:40.832Z,5308
2019-06-20T13:15:40.724Z,5580
2019-06-20T13:16:42.804Z,4724
2019-06-20T13:17:44.810Z,3892
2019-06-20T13:18:46.208Z,3720
2019-06-20T13:19:46.520Z,4988
2019-06-20T13:20:48.438Z,5096
2019-06-20T13:21:49.012Z,4784
2019-06-20T13:22:50.418Z,4692
2019-06-20T13:23:51.866Z,4964
2019-06-20T13:24:53.377Z,5020
2019-06-20T13:25:54.846Z,4736
2019-06-20T13:26:56.274Z,4176
2019-06-20T13:27:57.684Z,3852
2019-06-20T13:29:03.996Z,3604
2019-06-20T13:30:00.552Z,3568
2019-06-20T13:31:02.013Z,3716
2019-06-20T13:32:04.567Z,3944
2019-06-20T13:33:04.885Z,3800
2019-06-20T13:34:06.313Z,3444
2019-06-20T13:35:07.720Z,3488
2019-06-20T13:36:09.157Z,3428
2019-06-20T13:37:10.576Z,3268
2019-06-20T13:38:11.994Z,3124
2019-06-20T13:39:13.415Z,2952
2019-06-20T13:40:14.836Z,2904
2019-06-20T13:41:16.246Z,2904
2019-06-20T13:42:17.651Z,2888
2019-06-20T13:43:19.216Z,3084
2019-06-20T13:44:21.656Z,3548
2019-06-20T13:45:21.833Z,4020
2019-06-20T13:46:23.264Z,4472
2019-06-20T13:47:24.653Z,4536
2019-06-20T13:48:26.078Z,4112
2019-06-20T13:49:27.482Z,4072
2019-06-20T13:50:28.903Z,4076
2019-06-20T13:51:30.318Z,4136
2019-06-20T13:52:33.965Z,4132
2019-06-20T13:53:33.106Z,4240
2019-06-20T13:54:34.548Z,4412